Time;durP1;ratioP1;P1;durP2;ratioP2;P2;SDS_P1;SDS_P2;PMS_P1;PMS_P2;Temp;Humidity;BMP_temperature;BMP_pressure;BME280_temperature;BME280_humidity;BME280_pressure;Samples;Min_cycle;Max_cycle;Signal;HPM_P1;HPM_P2
2021/07/19 00:00:12;;;;;;;14.43;8.08;;;;;;;19.21;64.93;100311.20;2053993;86;28777;-65
2021/07/19 00:03:16;;;;;;;13.80;8.40;;;;;;;19.18;65.01;100317.77;2015287;87;28527;-66
2021/07/19 00:06:18;;;;;;;14.58;8.05;;;;;;;19.13;65.26;100318.66;2063620;86;34173;-65
2021/07/19 00:09:21;;;;;;;16.02;7.85;;;;;;;19.08;65.28;100326.33;2053384;84;29701;-65
2021/07/19 00:12:23;;;;;;;11.20;7.78;;;;;;;19.03;65.45;100332.16;2015756;86;28123;-66
2021/07/19 00:15:27;;;;;;;12.13;7.58;;;;;;;18.96;65.39;100327.74;2053909;86;28643;-66
2021/07/19 00:18:29;;;;;;;;;;;;;;;18.89;65.41;100329.72;2056366;85;32304;-65
2021/07/19 00:21:31;;;;;;;10.43;7.28;;;;;;;18.80;65.66;100327.28;2054546;84;32777;-66
2021/07/19 00:24:33;;;;;;;11.93;7.75;;;;;;;18.70;65.71;100328.55;2053091;86;30448;-66
2021/07/19 00:27:36;;;;;;;12.98;7.00;;;;;;;18.65;65.85;100333.48;2053288;86;27820;-65
2021/07/19 00:30:39;;;;;;;10.98;7.70;;;;;;;18.58;65.91;100327.71;2058257;84;28745;-66
2021/07/19 00:33:41;;;;;;;14.13;8.05;;;;;;;18.53;66.12;100332.17;2093146;85;31539;-66
2021/07/19 00:36:43;;;;;;;10.65;7.28;;;;;;;18.48;66.25;100334.90;2048832;86;33059;-66
2021/07/19 00:39:45;;;;;;;10.20;7.53;;;;;;;18.41;66.36;100329.13;2012769;87;29912;-66
2021/07/19 00:42:47;;;;;;;10.68;6.72;;;;;;;18.36;66.41;100333.58;1967435;89;28126;-65
2021/07/19 00:45:49;;;;;;;12.73;7.72;;;;;;;18.28;66.60;100336.04;2003527;88;30896;-66
2021/07/19 00:48:51;;;;;;;11.68;7.78;;;;;;;18.21;66.75;100344.30;2014082;88;32195;-64
2021/07/19 00:51:53;;;;;;;10.50;6.80;;;;;;;18.15;66.85;100344.81;2036920;86;34096;-65
2021/07/19 00:54:55;;;;;;;10.70;7.70;;;;;;;18.08;66.95;100349.87;2016002;87;30724;-64
2021/07/19 00:57:58;;;;;;;12.37;7.42;;;;;;;17.92;67.19;100332.09;2058853;86;28289;-65
2021/07/19 01:01:00;;;;;;;12.70;8.30;;;;;;;18.02;67.41;100351.23;2056309;86;29427;-64
2021/07/19 01:04:03;;;;;;;11.83;7.72;;;;;;;17.98;67.51;100348.86;2104173;84;33073;-64
2021/07/19 01:07:06;;;;;;;8.98;7.33;;;;;;;17.92;67.52;100353.78;2019427;86;33923;-64
2021/07/19 01:10:14;;;;;;;12.65;8.23;;;;;;;17.88;67.83;100359.55;2022376;87;30498;-64
2021/07/19 01:13:19;;;;;;;14.53;7.42;;;;;;;17.81;67.89;100352.91;2014187;87;28274;-64
2021/07/19 01:16:21;;;;;;;13.40;7.97;;;;;;;17.68;68.11;100354.36;2050646;86;28752;-64
2021/07/19 01:19:23;;;;;;;11.12;8.75;;;;;;;17.68;68.11;100354.36;2051013;86;31926;-64
2021/07/19 01:22:36;;;;;;;14.47;8.23;;;;;;;17.55;68.20;100344.50;2089046;84;33816;-63
2021/07/19 01:25:49;;;;;;;10.05;7.17;;;;;;;17.60;68.46;100353.61;2081152;85;31128;-64
2021/07/19 01:28:53;;;;;;;14.20;7.50;;;;;;;17.55;68.44;100343.14;2062231;84;27634;-64
2021/07/19 01:31:56;;;;;;;10.70;7.60;;;;;;;17.52;68.64;100354.21;2053224;86;29788;-65
2021/07/19 01:34:59;;;;;;;12.75;8.83;;;;;;;17.45;68.76;100350.27;2054084;84;31077;-63
2021/07/19 01:38:02;;;;;;;12.28;8.33;;;;;;;17.37;68.88;100353.58;2055142;84;34252;-64
2021/07/19 01:41:05;;;;;;;15.10;7.62;;;;;;;17.24;69.00;100335.18;2053300;86;29569;-64
2021/07/19 01:44:07;;;;;;;11.73;7.47;;;;;;;17.25;69.41;100351.80;2027319;86;27774;-64
2021/07/19 01:47:10;;;;;;;15.28;7.85;;;;;;;17.25;69.41;100351.80;2030601;87;28691;-64
2021/07/19 01:50:13;;;;;;;12.50;8.60;;;;;;;17.23;69.33;100352.41;1997651;88;31434;-64
2021/07/19 01:53:16;;;;;;;12.13;8.20;;;;;;;17.20;69.18;100357.58;1956228;90;34267;-64
2021/07/19 01:56:19;;;;;;;14.33;8.13;;;;;;;17.18;69.29;100358.17;1995761;88;30219;-63
2021/07/19 01:59:21;;;;;;;11.35;8.30;;;;;;;17.14;69.30;100360.27;1986139;89;27990;-64
2021/07/19 02:02:24;;;;;;;15.53;8.88;;;;;;;17.13;69.48;100363.95;1990573;87;29580;-63
2021/07/19 02:05:26;;;;;;;14.65;8.35;;;;;;;17.05;69.82;100358.75;2018726;87;31145;-64
2021/07/19 02:08:28;;;;;;;15.75;8.38;;;;;;;17.05;69.82;100358.75;1985524;87;33367;-64
2021/07/19 02:11:30;;;;;;;10.55;7.40;;;;;;;17.02;69.69;100358.50;2030955;86;30281;-64
2021/07/19 02:14:32;;;;;;;14.98;8.38;;;;;;;17.00;69.77;100355.05;2076957;85;27665;-62
2021/07/19 02:17:35;;;;;;;12.35;8.38;;;;;;;16.97;69.87;100353.41;1993081;88;29930;-64
2021/07/19 02:20:37;;;;;;;14.80;8.80;;;;;;;16.80;70.07;100335.73;2046546;87;31427;-64
2021/07/19 02:23:40;;;;;;;11.68;8.30;;;;;;;16.80;70.07;100335.73;2043826;87;33024;-64
2021/07/19 02:26:42;;;;;;;13.50;8.63;;;;;;;16.91;70.15;100359.28;2026586;87;29324;-63
2021/07/19 02:29:44;;;;;;;11.33;8.13;;;;;;;16.85;70.21;100357.02;2015358;85;27726;-64
2021/07/19 02:32:57;;;;;;;19.02;8.90;;;;;;;16.79;70.25;100357.00;2015617;88;29396;-64
2021/07/19 02:36:00;;;;;;;13.40;8.03;;;;;;;16.79;70.25;100357.00;2016832;87;31253;-64
2021/07/19 02:39:04;;;;;;;13.72;8.70;;;;;;;16.77;70.48;100354.05;1978168;89;33037;-64
2021/07/19 02:42:06;;;;;;;12.00;8.65;;;;;;;16.75;70.49;100356.84;1961198;90;29371;-64
2021/07/19 02:45:14;;;;;;;10.43;8.18;;;;;;;16.75;70.65;100355.49;1994827;89;27585;-63
2021/07/19 02:48:16;;;;;;;12.85;8.95;;;;;;;16.74;70.58;100357.83;2035344;86;29127;-64
2021/07/19 02:51:18;;;;;;;12.13;8.23;;;;;;;16.73;70.61;100360.66;1975525;89;32335;-63
2021/07/19 02:54:21;;;;;;;13.85;8.40;;;;;;;16.71;70.53;100358.92;2016066;87;33658;-63
2021/07/19 02:57:24;;;;;;;16.62;8.13;;;;;;;16.69;70.87;100354.62;2016891;87;31478;-63
2021/07/19 03:00:26;;;;;;;14.73;8.75;;;;;;;16.66;70.93;100359.75;2083065;85;27701;-63
2021/07/19 03:03:30;;;;;;;15.53;8.18;;;;;;;16.67;71.02;100360.62;2030351;85;30063;-63
2021/07/19 03:06:35;;;;;;;16.23;8.13;;;;;;;16.69;71.11;100369.00;2023485;86;31203;-63
2021/07/19 03:09:40;;;;;;;19.45;8.90;;;;;;;16.69;71.03;100366.80;1998613;88;34191;-63
2021/07/19 03:12:42;;;;;;;14.63;9.18;;;;;;;16.72;70.99;100371.95;1998523;87;36779;-64
2021/07/19 03:15:45;;;;;;;15.08;9.00;;;;;;;16.73;71.20;100372.33;2040607;86;27571;-63
2021/07/19 03:18:48;;;;;;;12.10;7.90;;;;;;;16.76;71.25;100373.95;2028328;87;29620;-64
2021/07/19 03:21:54;;;;;;;12.47;7.92;;;;;;;16.79;71.33;100371.88;2023809;87;31622;-64
2021/07/19 03:24:57;;;;;;;11.65;7.80;;;;;;;16.85;71.37;100371.43;2051783;85;32990;-63
2021/07/19 03:27:59;;;;;;;11.55;7.75;;;;;;;16.93;71.39;100365.91;2011095;87;30163;-63
2021/07/19 03:31:02;;;;;;;11.48;7.97;;;;;;;17.01;71.42;100356.27;2012191;87;28188;-63
2021/07/19 03:34:11;;;;;;;11.85;8.18;;;;;;;17.12;71.38;100351.39;2017889;87;29902;-64
2021/07/19 03:37:09;;;;;;;14.50;8.78;;;;;;;17.22;71.52;100355.61;1993130;88;32025;-64
2021/07/19 03:40:13;;;;;;;16.55;8.70;;;;;;;17.34;71.47;100348.39;2025098;87;32968;-64
2021/07/19 03:43:15;;;;;;;13.62;8.50;;;;;;;17.54;71.39;100359.02;1998504;87;29334;-63
2021/07/19 03:46:21;;;;;;;11.35;7.60;;;;;;;17.54;71.39;100359.02;1989788;89;27670;-64
2021/07/19 03:49:24;;;;;;;13.13;8.58;;;;;;;17.57;71.38;100350.66;2020815;87;29560;-64
2021/07/19 03:52:26;;;;;;;16.93;9.03;;;;;;;17.88;71.16;100367.20;2032208;87;32189;-64
2021/07/19 03:55:28;;;;;;;12.65;8.18;;;;;;;17.88;71.16;100367.20;2025332;87;33308;-64
2021/07/19 03:58:36;;;;;;;15.93;8.70;;;;;;;17.94;71.30;100348.73;2024698;87;30507;-64
2021/07/19 04:01:39;;;;;;;15.13;8.48;;;;;;;18.15;71.13;100364.64;2027546;86;27714;-64
2021/07/19 04:04:50;;;;;;;15.43;8.73;;;;;;;18.28;71.10;100364.52;2021026;88;28893;-64
2021/07/19 04:07:46;;;;;;;;;;;;;;;18.43;70.92;100361.53;2019935;87;31053;-63
2021/07/19 04:10:50;;;;;;;18.37;9.23;;;;;;;18.54;70.82;100369.64;2010585;87;32993;-63
2021/07/19 04:13:54;;;;;;;15.63;8.90;;;;;;;18.64;70.75;100365.68;2009637;87;30294;-63
2021/07/19 04:16:55;;;;;;;15.93;9.10;;;;;;;18.77;70.69;100357.39;2033329;87;27712;-64
2021/07/19 04:20:07;;;;;;;17.50;11.48;;;;;;;18.92;70.49;100358.81;2022444;87;29807;-63
2021/07/19 04:23:14;;;;;;;18.67;12.43;;;;;;;19.06;70.32;100365.84;2043301;86;32042;-63
2021/07/19 04:26:17;;;;;;;15.43;11.10;;;;;;;19.22;70.10;100369.45;2043273;86;32971;-63
2021/07/19 04:29:23;;;;;;;12.37;8.58;;;;;;;19.37;69.97;100364.58;2053933;85;29120;-63
2021/07/19 04:32:24;;;;;;;15.45;9.30;;;;;;;19.51;69.80;100365.23;1990001;89;27717;-64
2021/07/19 04:35:27;;;;;;;12.18;8.35;;;;;;;19.67;69.56;100371.06;2024148;87;29025;-63
2021/07/19 04:38:30;;;;;;;12.03;7.97;;;;;;;19.80;69.28;100368.14;2024591;87;32248;-63
2021/07/19 04:41:32;;;;;;;15.65;7.97;;;;;;;19.98;69.32;100374.34;2027268;85;34265;-63
2021/07/19 04:44:35;;;;;;;13.18;8.55;;;;;;;20.21;69.11;100373.66;2012883;87;30233;-64
2021/07/19 04:47:37;;;;;;;13.65;8.38;;;;;;;20.63;69.23;100376.72;2000458;87;27783;-63
2021/07/19 04:50:40;;;;;;;11.55;8.95;;;;;;;21.23;68.69;100369.86;2018607;86;28674;-63
2021/07/19 04:53:44;;;;;;;17.25;11.38;;;;;;;21.52;67.66;100369.45;1998459;87;32309;-64
2021/07/19 04:56:48;;;;;;;;;;;;;;;21.94;67.89;100362.29;2013561;86;33240;-71
2021/07/19 04:59:52;;;;;;;13.10;9.48;;;;;;;22.75;67.27;100365.36;2012189;88;29541;-69
2021/07/19 05:02:55;;;;;;;15.25;10.63;;;;;;;23.41;66.22;100363.27;2101706;84;27613;-69
2021/07/19 05:05:57;;;;;;;19.10;8.90;;;;;;;23.60;64.79;100360.84;2030322;86;28987;-69
2021/07/19 05:09:01;;;;;;;12.82;8.95;;;;;;;23.63;64.08;100352.84;1981382;87;30384;-64
2021/07/19 05:12:04;;;;;;;15.25;9.15;;;;;;;24.00;64.05;100351.70;1970411;88;32971;-64
2021/07/19 05:15:08;;;;;;;15.40;9.60;;;;;;;24.65;63.31;100342.55;1972605;89;29333;-64
2021/07/19 05:18:10;;;;;;;13.83;8.78;;;;;;;25.27;62.46;100350.38;1988889;86;27710;-64
2021/07/19 05:21:12;;;;;;;14.00;7.75;;;;;;;25.90;61.42;100348.41;2049704;86;29284;-63
2021/07/19 05:24:14;;;;;;;11.60;7.97;;;;;;;26.45;60.32;100341.72;2101424;84;31442;-64
2021/07/19 05:27:16;;;;;;;12.93;7.70;;;;;;;27.03;59.70;100335.91;2049002;86;34331;-63
2021/07/19 05:30:19;;;;;;;13.55;8.25;;;;;;;27.54;58.00;100338.94;2034011;87;30508;-64
2021/07/19 05:33:24;;;;;;;14.65;8.15;;;;;;;27.99;57.32;100344.45;2034519;87;27659;-64
2021/07/19 05:36:26;;;;;;;12.80;7.67;;;;;;;28.45;56.29;100348.08;2034009;87;29095;-64
2021/07/19 05:39:28;;;;;;;9.65;7.62;;;;;;;28.81;55.45;100344.48;1986503;88;32278;-64
2021/07/19 05:42:30;;;;;;;13.48;8.05;;;;;;;29.20;54.34;100343.72;1967084;90;34190;-64
2021/07/19 05:45:33;;;;;;;10.23;7.60;;;;;;;29.54;53.48;100348.48;2003105;86;30619;-64
2021/07/19 05:48:37;;;;;;;10.68;7.78;;;;;;;29.90;53.07;100360.95;2015471;87;28044;-64
2021/07/19 05:51:39;;;;;;;13.38;8.38;;;;;;;30.16;51.42;100356.16;2015753;88;29065;-64
2021/07/19 05:54:41;;;;;;;12.65;7.65;;;;;;;30.43;50.71;100359.03;2014393;86;31389;-64
2021/07/19 05:57:45;;;;;;;9.43;8.25;;;;;;;30.26;49.97;100349.71;2021808;86;57473;-64
2021/07/19 06:00:47;;;;;;;13.45;8.55;;;;;;;30.36;49.57;100351.26;2100431;84;30563;-64
2021/07/19 06:03:50;;;;;;;13.85;8.55;;;;;;;30.69;49.36;100360.24;2050606;86;27518;-64
2021/07/19 06:06:53;;;;;;;16.02;8.80;;;;;;;31.25;48.38;100356.34;2101029;84;29909;-65
2021/07/19 06:09:56;;;;;;;12.30;8.95;;;;;;;31.82;47.29;100359.53;2043084;86;31029;-64
2021/07/19 06:13:00;;;;;;;11.08;8.15;;;;;;;31.84;46.10;100360.70;2050529;86;33669;-64
2021/07/19 06:16:05;;;;;;;11.95;8.18;;;;;;;31.27;45.56;100368.05;2101426;84;29391;-64
2021/07/19 06:19:08;;;;;;;9.90;8.33;;;;;;;30.60;45.72;100371.47;2048516;86;27619;-63
2021/07/19 06:22:13;;;;;;;10.10;9.08;;;;;;;30.03;46.15;100372.66;2101390;84;29593;-64
2021/07/19 06:25:29;;;;;;;17.87;8.58;;;;;;;29.50;45.98;100373.40;2050751;86;31102;-64
2021/07/19 06:28:33;;;;;;;14.60;8.75;;;;;;;29.05;46.41;100380.48;2098063;84;29893;-63
2021/07/19 06:31:38;;;;;;;12.53;8.75;;;;;;;28.52;46.82;100380.70;2050868;86;29414;-62
2021/07/19 06:34:41;;;;;;;16.35;9.25;;;;;;;28.19;47.18;100368.71;2101576;84;27722;-63
2021/07/19 06:37:45;;;;;;;9.80;7.70;;;;;;;28.11;47.69;100359.19;2049721;86;28694;-64
2021/07/19 06:40:49;;;;;;;14.20;8.80;;;;;;;28.34;47.81;100354.39;2050543;86;31130;-63
2021/07/19 06:43:52;;;;;;;12.73;8.55;;;;;;;28.73;47.17;100355.61;2101289;83;32952;-63
2021/07/19 06:46:56;;;;;;;12.33;8.35;;;;;;;28.93;46.53;100356.72;2022571;86;29342;-63
2021/07/19 06:49:58;;;;;;;13.15;8.10;;;;;;;29.58;46.85;100357.22;2088216;85;27708;-64
2021/07/19 06:53:00;;;;;;;8.90;7.95;;;;;;;30.28;45.92;100365.56;2053305;86;29405;-64
2021/07/19 06:56:03;;;;;;;12.33;7.65;;;;;;;30.64;45.01;100365.53;2053262;86;32510;-64
2021/07/19 06:59:04;;;;;;;9.70;7.80;;;;;;;30.58;44.51;100366.67;2032911;86;32943;-64
2021/07/19 07:02:07;;;;;;;10.10;7.25;;;;;;;30.66;43.96;100356.50;2056291;84;29396;-64
2021/07/19 07:05:10;;;;;;;13.00;7.78;;;;;;;30.91;43.65;100352.63;2052664;86;27556;-64
2021/07/19 07:08:17;;;;;;;9.30;7.50;;;;;;;31.43;43.42;100353.47;2065653;84;29519;-64
2021/07/19 07:11:27;;;;;;;12.20;7.95;;;;;;;31.59;42.48;100356.33;2025583;86;31427;-64
2021/07/19 07:14:30;;;;;;;12.90;8.10;;;;;;;31.52;42.62;100360.48;2053659;86;32975;-64
2021/07/19 07:17:32;;;;;;;11.65;7.35;;;;;;;31.19;41.86;100363.55;2055778;84;29736;-64
2021/07/19 07:20:38;;;;;;;10.05;8.75;;;;;;;30.73;42.10;100368.42;1982431;89;35864;-64
2021/07/19 07:23:40;;;;;;;11.20;7.05;;;;;;;30.36;42.04;100358.17;1982173;89;28718;-63
2021/07/19 07:26:42;;;;;;;11.73;7.12;;;;;;;30.22;42.46;100356.70;1982093;89;31916;-63
2021/07/19 07:29:44;;;;;;;9.33;7.50;;;;;;;30.36;42.39;100355.41;1981265;88;33354;-64
2021/07/19 07:32:49;;;;;;;11.00;8.50;;;;;;;30.41;41.61;100350.09;1982628;89;30485;-64
2021/07/19 07:35:51;;;;;;;12.45;7.75;;;;;;;30.34;41.99;100345.92;1982300;88;28332;-65
2021/07/19 07:38:53;;;;;;;15.60;7.17;;;;;;;30.59;42.05;100339.89;1974776;89;29793;-75
2021/07/19 07:41:56;;;;;;;10.55;6.72;;;;;;;31.41;41.74;100335.66;2006252;87;32403;-89
2021/07/19 07:44:59;;;;;;;10.25;7.72;;;;;;;32.42;41.12;100338.28;1974647;89;33630;-83
2021/07/19 07:48:01;;;;;;;10.43;7.40;;;;;;;33.20;39.55;100339.65;1975850;90;29341;-64
2021/07/19 07:51:07;;;;;;;11.63;8.53;;;;;;;33.47;38.95;100349.48;1933844;90;27738;-64
2021/07/19 07:54:09;;;;;;;12.28;7.92;;;;;;;33.40;38.70;100338.98;1983961;88;28675;-64
2021/07/19 07:57:14;;;;;;;12.50;8.48;;;;;;;33.15;38.33;100337.00;1941014;90;31949;-64
2021/07/19 08:00:18;;;;;;;13.62;8.08;;;;;;;32.69;38.35;100337.59;1930316;91;33715;-64
2021/07/19 08:03:21;;;;;;;14.95;8.88;;;;;;;32.25;38.69;100341.52;1943514;90;29335;-64
2021/07/19 08:06:23;;;;;;;9.93;8.28;;;;;;;31.86;38.59;100338.30;2001969;87;27763;-64
2021/07/19 08:09:26;;;;;;;11.00;7.55;;;;;;;31.45;38.92;100337.47;1974867;90;29545;-64
2021/07/19 08:12:30;;;;;;;12.20;9.03;;;;;;;31.31;39.30;100338.86;1973708;90;31964;-65
2021/07/19 08:15:36;;;;;;;10.50;9.33;;;;;;;31.22;39.01;100344.30;1889739;93;33868;-64
2021/07/19 08:18:38;;;;;;;8.80;7.72;;;;;;;31.26;39.03;100339.18;1888751;93;30219;-64
2021/07/19 08:21:41;;;;;;;11.68;9.00;;;;;;;31.42;39.22;100340.69;1885342;93;27732;-64
2021/07/19 08:24:43;;;;;;;9.67;8.63;;;;;;;31.39;38.69;100336.95;1908398;92;28147;-64
2021/07/19 08:27:48;;;;;;;13.05;9.58;;;;;;;31.21;38.87;100334.29;1898172;93;32054;-63
2021/07/19 08:30:50;;;;;;;15.90;9.75;;;;;;;31.09;38.96;100341.49;1914049;91;33706;-64
2021/07/19 08:33:54;;;;;;;14.98;9.38;;;;;;;30.87;39.34;100342.50;1932958;90;30366;-65
2021/07/19 08:36:57;;;;;;;15.32;10.28;;;;;;;30.68;39.55;100343.33;1942779;90;28367;-64
2021/07/19 08:40:00;;;;;;;15.15;9.63;;;;;;;30.34;39.77;100353.38;1915321;92;29956;-63
2021/07/19 08:43:06;;;;;;;12.33;10.08;;;;;;;30.15;40.67;100353.06;1941877;91;31042;-64
2021/07/19 08:46:10;;;;;;;15.20;9.93;;;;;;;30.18;40.74;100349.90;1949831;90;33000;-64
2021/07/19 08:49:12;;;;;;;21.53;10.40;;;;;;;30.15;40.67;100355.83;1940862;90;30355;-64
2021/07/19 08:52:17;;;;;;;13.45;10.40;;;;;;;29.95;40.57;100351.03;1946365;90;28135;-64
2021/07/19 08:55:23;;;;;;;12.07;9.38;;;;;;;29.86;40.78;100354.99;1950192;91;29881;-65
2021/07/19 08:58:32;;;;;;;15.80;9.90;;;;;;;29.89;40.84;100345.44;1949760;91;31853;-66
2021/07/19 09:01:37;;;;;;;13.45;9.18;;;;;;;29.96;40.88;100354.12;1948400;90;33634;-64
2021/07/19 09:04:40;;;;;;;17.30;10.68;;;;;;;30.00;40.78;100355.94;1927599;91;29133;-64
2021/07/19 09:07:43;;;;;;;15.40;10.05;;;;;;;29.82;40.85;100368.33;1947600;91;27839;-63
2021/07/19 09:10:46;;;;;;;15.32;10.20;;;;;;;29.43;41.25;100366.12;1946846;90;28671;-63
2021/07/19 09:14:07;;;;;;;13.25;10.45;;;;;;;29.19;41.45;100363.55;1947365;91;31136;-64
2021/07/19 09:17:24;;;;;;;15.15;10.38;;;;;;;29.03;41.72;100368.81;1949909;86;33617;-63
2021/07/19 09:20:38;;;;;;;14.40;10.38;;;;;;;28.99;41.97;100376.27;2040112;86;29349;-64
2021/07/19 09:23:42;;;;;;;16.20;11.10;;;;;;;28.89;42.38;100376.08;2064363;85;27713;-63
2021/07/19 09:26:48;;;;;;;13.62;10.68;;;;;;;28.96;42.69;100376.98;2054861;85;28773;-63
2021/07/19 09:29:52;;;;;;;13.83;11.08;;;;;;;28.94;42.99;100377.73;1990551;89;31112;-63
2021/07/19 09:33:10;;;;;;;12.47;11.07;;;;;;;29.02;42.87;100372.63;2034493;85;33724;-65
2021/07/19 09:36:13;;;;;;;17.80;10.43;;;;;;;28.99;43.01;100381.28;2053389;86;29375;-64
2021/07/19 09:39:19;;;;;;;10.95;9.80;;;;;;;29.00;42.86;100380.23;2033095;86;27753;-64
2021/07/19 09:49:20;;;;;;;;;;;;;;;;;;;;;
2021/07/19 09:52:19;;;;;;;16.25;9.83;;;;;;;27.97;43.54;100396.11;1617744;108;27890;-64
2021/07/19 09:55:28;;;;;;;17.90;9.20;;;;;;;27.48;44.06;100391.95;1640542;107;27995;-64
2021/07/19 09:58:30;;;;;;;12.68;8.20;;;;;;;26.96;44.56;100395.74;1638463;107;29974;-65
2021/07/19 10:01:35;;;;;;;13.08;8.80;;;;;;;26.39;45.09;100395.49;1641924;107;32004;-66
2021/07/19 10:04:42;;;;;;;13.68;8.43;;;;;;;25.86;45.82;100401.97;1637269;107;32453;-65
2021/07/19 10:07:47;;;;;;;11.90;8.15;;;;;;;25.50;46.81;100399.06;1637371;107;29352;-65
2021/07/19 10:10:50;;;;;;;11.03;8.10;;;;;;;25.19;47.42;100396.97;1636514;107;28176;-65
2021/07/19 10:13:55;;;;;;;12.78;8.43;;;;;;;24.87;47.74;100391.78;1640348;107;28180;-65
2021/07/19 10:16:58;;;;;;;11.53;8.53;;;;;;;24.62;48.20;100390.81;1638642;107;32344;-64
2021/07/19 10:20:00;;;;;;;15.60;9.33;;;;;;;24.36;49.08;100397.23;1647924;107;33192;-64
2021/07/19 10:23:06;;;;;;;10.53;7.50;;;;;;;24.20;49.75;100399.37;1627483;107;29815;-64
2021/07/19 10:26:12;;;;;;;9.48;7.30;;;;;;;24.06;50.04;100403.06;1786514;88;27756;-64
2021/07/19 10:29:16;;;;;;;9.63;6.40;;;;;;;23.96;50.33;100400.44;1985057;88;29468;-64
2021/07/19 10:32:24;;;;;;;7.97;6.13;;;;;;;24.01;50.99;100402.69;1941383;90;31120;-64
2021/07/19 10:35:29;;;;;;;15.03;6.75;;;;;;;24.23;50.94;100399.92;1981418;89;32987;-64
2021/07/19 10:38:33;;;;;;;9.45;6.53;;;;;;;24.45;50.75;100400.87;1962069;89;30210;-64
2021/07/19 10:41:38;;;;;;;9.43;5.83;;;;;;;24.65;50.55;100395.97;1985144;89;27744;-64
2021/07/19 10:44:43;;;;;;;7.05;5.45;;;;;;;24.84;50.20;100392.11;1974480;89;29075;-65
2021/07/19 10:47:54;;;;;;;8.03;5.67;;;;;;;24.95;50.21;100400.53;1964941;88;31934;-64
2021/07/19 10:50:59;;;;;;;8.48;5.12;;;;;;;25.07;50.01;100401.92;1978347;87;32977;-63
2021/07/19 10:54:12;;;;;;;8.48;5.67;;;;;;;25.21;50.08;100388.59;1999809;87;30234;-64
2021/07/19 10:57:17;;;;;;;7.40;4.92;;;;;;;25.44;49.95;100394.29;1975843;88;27717;-63
2021/07/19 11:00:19;;;;;;;7.40;5.28;;;;;;;25.54;49.52;100388.10;1958514;88;29062;-64
2021/07/19 11:03:21;;;;;;;9.95;5.65;;;;;;;25.61;49.05;100393.75;1976727;88;30515;-73
2021/07/19 11:06:34;;;;;;;10.40;5.80;;;;;;;25.69;48.95;100386.03;1986684;87;33013;-64
2021/07/19 11:09:38;;;;;;;7.83;5.55;;;;;;;25.84;48.39;100387.56;1973027;88;29354;-63
2021/07/19 11:12:52;;;;;;;8.40;6.25;;;;;;;25.97;47.56;100384.28;1975915;87;28344;-65
2021/07/19 11:15:54;;;;;;;10.95;6.60;;;;;;;25.99;47.41;100389.05;2004301;87;28686;-63
2021/07/19 11:19:02;;;;;;;10.25;7.05;;;;;;;25.99;46.75;100384.44;2002379;87;31056;-63
2021/07/19 11:22:23;;;;;;;11.30;6.95;;;;;;;25.99;46.95;100382.19;2018729;87;33019;-63
2021/07/19 11:25:30;;;;;;;10.25;6.20;;;;;;;26.10;46.78;100387.33;2002619;87;30107;-62
2021/07/19 11:28:42;;;;;;;7.85;5.67;;;;;;;26.22;46.07;100382.36;1991277;89;27742;-62
2021/07/19 11:31:44;;;;;;;9.58;6.92;;;;;;;26.23;46.05;100377.17;2013436;87;28703;-62
2021/07/19 11:34:48;;;;;;;12.37;5.67;;;;;;;26.26;46.15;100381.47;1996499;87;32266;-63
2021/07/19 11:37:56;;;;;;;8.48;5.70;;;;;;;26.40;46.22;100372.48;2022454;88;33065;-63
2021/07/19 11:40:56;;;;;;;10.30;6.15;;;;;;;26.47;45.54;100371.25;1998289;87;29393;-63
2021/07/19 11:44:04;;;;;;;8.75;5.28;;;;;;;26.43;45.89;100365.27;1977831;89;27703;-63
2021/07/19 11:47:07;;;;;;;10.85;5.62;;;;;;;26.44;46.08;100356.49;2021788;88;29056;-63
2021/07/19 11:50:10;;;;;;;9.63;5.72;;;;;;;26.65;46.12;100359.98;2020375;87;32082;-62
2021/07/19 11:53:12;;;;;;;9.58;5.17;;;;;;;26.78;45.73;100358.89;2025622;87;32272;-63
2021/07/19 11:56:14;;;;;;;11.97;5.87;;;;;;;26.90;45.52;100354.38;1997316;87;30641;-63
2021/07/19 11:59:27;;;;;;;12.18;5.30;;;;;;;26.89;45.37;100348.01;1983436;89;27633;-63
2021/07/19 12:02:30;;;;;;;9.83;5.20;;;;;;;26.93;45.12;100343.86;1975809;87;29864;-62
2021/07/19 12:05:34;;;;;;;11.55;5.28;;;;;;;26.92;45.33;100340.78;1978077;87;32264;-63
2021/07/19 12:08:36;;;;;;;9.25;5.12;;;;;;;26.84;44.81;100336.19;2006169;87;33201;-63
2021/07/19 12:11:38;;;;;;;8.55;5.28;;;;;;;26.77;45.44;100336.57;1983821;87;29842;-63
2021/07/19 12:14:40;;;;;;;7.80;5.33;;;;;;;26.75;45.69;100327.65;1983321;89;27738;-63
2021/07/19 12:17:43;;;;;;;8.20;5.08;;;;;;;26.82;45.22;100323.14;2017763;87;29938;-63
2021/07/19 12:20:45;;;;;;;10.68;5.45;;;;;;;26.78;44.79;100327.79;2021558;87;31103;-63
2021/07/19 12:23:53;;;;;;;8.95;5.00;;;;;;;26.64;45.11;100329.45;1998211;87;33416;-63
2021/07/19 12:27:01;;;;;;;11.57;5.53;;;;;;;26.53;44.85;100321.93;1992851;87;30191;-63
2021/07/19 12:30:04;;;;;;;8.03;5.35;;;;;;;26.66;45.86;100309.48;1983571;89;27834;-64
2021/07/19 12:33:06;;;;;;;9.03;5.72;;;;;;;26.83;45.11;100326.77;1982579;89;28749;-63
2021/07/19 12:36:09;;;;;;;7.92;5.60;;;;;;;26.83;44.67;100325.39;1983070;87;32194;-63
2021/07/19 12:39:16;;;;;;;9.55;5.25;;;;;;;26.83;44.63;100312.48;1975230;89;33873;-63
2021/07/19 12:42:26;;;;;;;7.97;5.45;;;;;;;26.76;44.51;100320.24;1975725;90;29339;-63
2021/07/19 12:45:25;;;;;;;11.88;6.62;;;;;;;26.63;44.39;100319.48;1978889;87;27640;-64
2021/07/19 12:48:27;;;;;;;13.05;6.22;;;;;;;26.41;44.80;100322.01;2024765;87;29922;-63
2021/07/19 12:51:30;;;;;;;9.78;7.15;;;;;;;26.30;44.74;100328.75;2020193;87;32116;-63
2021/07/19 12:54:33;;;;;;;15.03;7.15;;;;;;;26.19;45.02;100329.16;2016357;87;34242;-64
2021/07/19 12:57:42;;;;;;;9.63;7.15;;;;;;;26.23;45.02;100325.86;1989426;87;29380;-63
2021/07/19 13:00:45;;;;;;;10.25;7.25;;;;;;;26.24;44.80;100325.33;1972782;90;28361;-63
2021/07/19 13:03:47;;;;;;;7.95;6.35;;;;;;;26.22;45.03;100320.56;1969796;90;30089;-63
2021/07/19 13:06:50;;;;;;;16.17;7.45;;;;;;;26.19;45.30;100326.41;1971922;88;32284;-63
2021/07/19 13:09:57;;;;;;;14.90;8.28;;;;;;;26.17;45.14;100331.22;1970491;89;33190;-63
2021/07/19 13:13:02;;;;;;;12.43;7.92;;;;;;;26.04;45.24;100328.49;1969040;90;29338;-64
2021/07/19 13:16:04;;;;;;;14.05;8.50;;;;;;;25.93;45.58;100325.61;1980832;88;27766;-63
2021/07/19 13:19:06;;;;;;;13.32;8.58;;;;;;;25.87;45.56;100327.67;2016162;87;29765;-64
2021/07/19 13:22:10;;;;;;;13.72;8.03;;;;;;;25.87;45.75;100328.20;2016342;87;32242;-64
2021/07/19 13:25:30;;;;;;;17.50;8.98;;;;;;;25.87;45.42;100322.19;2016926;88;33016;-64
2021/07/19 13:28:29;;;;;;;13.85;8.35;;;;;;;25.86;45.74;100331.98;2014865;88;29379;-64
2021/07/19 13:31:31;;;;;;;18.82;8.88;;;;;;;25.92;45.87;100320.28;2016836;87;27634;-64
2021/07/19 13:34:33;;;;;;;10.80;8.45;;;;;;;25.78;45.46;100328.74;2016493;88;29547;-64
2021/07/19 13:37:39;;;;;;;17.65;9.00;;;;;;;25.54;45.58;100324.16;2013376;87;32303;-64
2021/07/19 13:40:47;;;;;;;13.28;8.63;;;;;;;25.41;45.83;100335.63;2016556;88;33746;-64
2021/07/19 13:43:55;;;;;;;14.95;9.25;;;;;;;25.23;45.83;100332.55;2016786;88;29516;-63
2021/07/19 13:46:57;;;;;;;11.50;8.78;;;;;;;25.17;46.11;100334.09;2008496;88;27721;-64
2021/07/19 13:49:59;;;;;;;16.80;9.03;;;;;;;25.17;46.23;100329.98;2016454;88;29296;-64
2021/07/19 13:53:02;;;;;;;15.32;8.58;;;;;;;25.28;46.44;100329.28;2021616;87;32296;-63
2021/07/19 13:56:05;;;;;;;13.55;8.13;;;;;;;25.40;46.46;100332.01;2019844;87;33897;-64
2021/07/19 13:59:06;;;;;;;17.05;8.70;;;;;;;25.54;46.34;100333.23;2022182;87;30513;-63
2021/07/19 14:02:11;;;;;;;18.55;8.45;;;;;;;25.59;45.82;100332.70;2022259;87;27749;-64
2021/07/19 14:05:15;;;;;;;14.23;8.50;;;;;;;25.59;45.53;100328.09;2022127;87;30790;-64
2021/07/19 14:08:18;;;;;;;12.60;8.37;;;;;;;25.56;45.11;100333.92;1991267;88;31878;-64
2021/07/19 14:11:20;;;;;;;14.70;8.93;;;;;;;25.50;45.53;100333.77;1988230;89;33850;-63
2021/07/19 14:14:23;;;;;;;18.02;8.98;;;;;;;25.50;45.53;100328.28;1988485;89;30010;-62